createdAt,value
2023-04-19T00:02:02.928Z,10.41
2023-04-19T00:04:30.307Z,10.42
2023-04-19T00:06:58.558Z,10.40
2023-04-19T00:09:25.648Z,10.38
2023-04-19T00:11:52.932Z,10.29
2023-04-19T00:14:19.959Z,10.31
2023-04-19T00:16:46.884Z,10.29
2023-04-19T00:19:13.805Z,10.25
2023-04-19T00:21:41.466Z,10.24
2023-04-19T00:24:08.300Z,10.26
2023-04-19T00:26:34.989Z,10.21
2023-04-19T00:29:01.879Z,10.24
2023-04-19T00:31:28.712Z,10.31
2023-04-19T00:33:55.573Z,10.29
2023-04-19T00:36:22.438Z,10.31
2023-04-19T00:38:49.200Z,10.31
2023-04-19T00:41:16.295Z,10.31
2023-04-19T00:43:43.103Z,10.23
2023-04-19T00:46:10.289Z,10.33
2023-04-19T00:48:38.943Z,10.32
2023-04-19T00:51:06.722Z,10.30
2023-04-19T00:53:34.211Z,10.27
2023-04-19T00:56:04.547Z,10.33
2023-04-19T00:58:32.333Z,10.34
2023-04-19T01:01:00.082Z,10.35
2023-04-19T01:03:29.866Z,10.31
2023-04-19T01:05:57.191Z,10.35
2023-04-19T01:08:24.222Z,10.36
2023-04-19T01:10:53.808Z,10.37
2023-04-19T01:13:20.517Z,10.29
2023-04-19T01:15:48.549Z,10.33
2023-04-19T01:18:15.859Z,10.32
2023-04-19T01:20:42.986Z,10.26
2023-04-19T01:23:11.773Z,10.28
2023-04-19T01:25:39.196Z,10.29
2023-04-19T01:28:06.422Z,10.25
2023-04-19T01:30:33.297Z,10.19
2023-04-19T01:33:00.225Z,10.26
2023-04-19T01:35:27.113Z,10.30
2023-04-19T01:37:56.212Z,10.32
2023-04-19T01:40:25.642Z,10.27
2023-04-19T01:42:53.022Z,10.30
2023-04-19T01:45:20.397Z,10.26
2023-04-19T01:47:51.158Z,10.26
2023-04-19T01:50:18.040Z,10.27
2023-04-19T01:52:44.832Z,10.24
2023-04-19T01:55:11.754Z,10.21
2023-04-19T01:57:38.825Z,10.16
2023-04-19T02:00:07.407Z,10.17
2023-04-19T02:02:42.025Z,10.19
2023-04-19T02:05:09.618Z,10.12
2023-04-19T02:07:36.309Z,10.16
2023-04-19T02:10:03.622Z,10.18
2023-04-19T02:12:33.711Z,10.16
2023-04-19T02:15:02.748Z,10.16
2023-04-19T02:17:35.005Z,10.15
2023-04-19T02:20:01.993Z,10.09
2023-04-19T02:22:28.737Z,10.03
2023-04-19T02:24:55.560Z,10.03
2023-04-19T02:27:28.171Z,10.02
2023-04-19T02:29:55.066Z,9.96
2023-04-19T02:32:21.985Z,10.04
2023-04-19T02:34:48.879Z,10.05
2023-04-19T02:37:15.601Z,10.02
2023-04-19T02:39:42.792Z,10.02
2023-04-19T02:42:09.614Z,9.99
2023-04-19T02:44:36.686Z,10.03
2023-04-19T02:47:03.594Z,10.00
2023-04-19T02:49:34.764Z,10.04
2023-04-19T02:52:02.323Z,10.00
2023-04-19T02:54:30.793Z,9.90
2023-04-19T02:56:57.738Z,9.92
2023-04-19T02:59:24.685Z,9.90
2023-04-19T03:01:52.315Z,9.90
2023-04-19T03:04:19.933Z,9.90
2023-04-19T03:06:47.134Z,9.83
2023-04-19T03:09:13.972Z,9.87
2023-04-19T03:11:40.797Z,9.86
2023-04-19T03:14:07.786Z,9.83
2023-04-19T03:16:34.733Z,9.79
2023-04-19T03:19:01.626Z,9.90
2023-04-19T03:21:33.756Z,9.85
2023-04-19T03:24:01.289Z,9.84
2023-04-19T03:26:28.190Z,9.80
2023-04-19T03:28:57.023Z,9.81
2023-04-19T03:31:30.442Z,9.81
2023-04-19T03:33:58.360Z,9.74
2023-04-19T03:36:29.714Z,9.74
2023-04-19T03:38:57.124Z,9.78
2023-04-19T03:41:25.563Z,9.68
2023-04-19T03:44:13.376Z,9.81
2023-04-19T03:46:43.333Z,9.80
2023-04-19T03:49:10.334Z,9.78
2023-04-19T03:51:37.956Z,9.78
2023-04-19T03:54:06.732Z,9.77
2023-04-19T03:56:33.494Z,9.75
2023-04-19T03:59:01.117Z,9.73
2023-04-19T04:01:29.357Z,9.78
2023-04-19T04:03:56.630Z,9.68
2023-04-19T04:06:24.420Z,9.82
2023-04-19T04:08:51.470Z,9.84
2023-04-19T04:11:18.293Z,9.80
2023-04-19T04:13:49.629Z,9.78
2023-04-19T04:16:20.655Z,9.76
2023-04-19T04:18:48.856Z,9.80
2023-04-19T04:21:16.010Z,9.88
2023-04-19T04:23:47.265Z,9.88
2023-04-19T04:26:22.014Z,9.89
2023-04-19T04:29:08.742Z,9.90
2023-04-19T04:31:37.179Z,9.90
2023-04-19T04:34:04.410Z,9.90
2023-04-19T04:36:34.173Z,9.90
2023-04-19T04:39:02.004Z,9.92
2023-04-19T04:41:31.516Z,9.99
2023-04-19T04:44:12.150Z,9.99
2023-04-19T04:46:40.142Z,9.95
2023-04-19T04:49:07.847Z,9.95
2023-04-19T04:51:34.843Z,9.98
2023-04-19T04:54:01.686Z,10.03
2023-04-19T04:56:28.962Z,9.99
2023-04-19T04:58:57.129Z,10.05
2023-04-19T05:01:30.474Z,10.10
2023-04-19T05:03:57.443Z,10.12
2023-04-19T05:06:24.569Z,10.17
2023-04-19T05:08:51.293Z,10.20
2023-04-19T05:11:29.554Z,10.23
2023-04-19T05:13:56.377Z,10.27
2023-04-19T05:16:23.485Z,10.34
2023-04-19T05:18:50.463Z,10.40
2023-04-19T05:21:17.172Z,10.42
2023-04-19T05:23:44.356Z,10.45
2023-04-19T05:26:14.973Z,10.53
2023-04-19T05:28:43.502Z,10.55
2023-04-19T05:31:16.630Z,10.54
2023-04-19T05:33:52.181Z,10.58
2023-04-19T05:36:19.096Z,10.61
2023-04-19T05:38:45.864Z,10.64
2023-04-19T05:41:12.724Z,10.65
2023-04-19T05:43:39.428Z,10.74
2023-04-19T05:46:07.822Z,10.77
2023-04-19T05:48:34.478Z,10.72
2023-04-19T05:51:31.913Z,10.83
2023-04-19T05:54:12.553Z,10.88
2023-04-19T05:56:40.748Z,10.91
2023-04-19T05:59:08.475Z,10.97
2023-04-19T06:01:35.565Z,10.99
2023-04-19T06:04:02.589Z,11.01
2023-04-19T06:06:29.678Z,10.99
2023-04-19T06:08:56.508Z,11.10
2023-04-19T06:11:31.482Z,11.05
2023-04-19T06:14:06.107Z,11.09
2023-04-19T06:16:33.081Z,11.11
2023-04-19T06:19:01.110Z,11.04
2023-04-19T06:21:31.630Z,11.16
2023-04-19T06:23:58.602Z,11.26
2023-04-19T06:26:25.529Z,11.29
2023-04-19T06:28:52.275Z,11.28
2023-04-19T06:31:19.242Z,11.37
2023-04-19T06:33:46.114Z,11.33
2023-04-19T06:36:13.085Z,11.44
2023-04-19T06:38:41.530Z,11.39
2023-04-19T06:41:09.311Z,11.38
2023-04-19T06:43:36.150Z,11.41
2023-04-19T06:46:04.960Z,11.33
2023-04-19T06:48:31.878Z,11.39
2023-04-19T06:50:58.665Z,11.43
2023-04-19T06:53:27.032Z,11.46
2023-04-19T06:56:01.111Z,11.55
2023-04-19T06:58:28.560Z,11.55
2023-04-19T07:00:56.048Z,11.45
2023-04-19T07:03:23.112Z,11.50
2023-04-19T07:05:52.135Z,11.39
2023-04-19T07:08:18.941Z,11.38
2023-04-19T07:10:45.770Z,11.41
2023-04-19T07:13:12.587Z,11.42
2023-04-19T07:15:39.480Z,11.40
2023-04-19T07:18:06.326Z,11.37
2023-04-19T07:20:34.002Z,11.32
2023-04-19T07:23:00.899Z,11.31
2023-04-19T07:25:27.786Z,11.37
2023-04-19T07:27:55.140Z,11.26
2023-04-19T07:30:22.383Z,11.21
2023-04-19T07:32:51.676Z,11.26
2023-04-19T07:35:19.518Z,11.27
2023-04-19T07:37:46.625Z,11.27
2023-04-19T07:40:13.690Z,11.40
2023-04-19T07:42:40.494Z,11.29
2023-04-19T07:45:08.917Z,11.48
2023-04-19T07:47:35.803Z,11.52
2023-04-19T07:50:03.394Z,11.41
2023-04-19T07:52:30.094Z,11.53
2023-04-19T07:54:57.081Z,11.57
2023-04-19T07:57:23.822Z,11.48
2023-04-19T07:59:50.506Z,11.50
2023-04-19T08:02:19.234Z,11.43
2023-04-19T08:04:48.402Z,11.57
2023-04-19T08:07:15.456Z,11.52
2023-04-19T08:09:42.213Z,11.62
2023-04-19T08:12:09.348Z,11.65
2023-04-19T08:17:23.346Z,11.73
2023-04-19T08:19:53.274Z,11.80
2023-04-19T08:22:21.296Z,11.80
2023-04-19T08:24:51.482Z,11.82
2023-04-19T08:27:18.886Z,11.76
2023-04-19T08:29:46.217Z,11.88
2023-04-19T08:32:13.397Z,11.82
2023-04-19T08:34:40.657Z,11.79
2023-04-19T08:37:07.569Z,11.79
2023-04-19T08:39:35.061Z,11.88
2023-04-19T08:42:13.465Z,11.99
2023-04-19T08:45:23.421Z,11.99
2023-04-19T08:47:58.740Z,11.87
2023-04-19T08:50:34.709Z,12.00
2023-04-19T08:53:23.248Z,11.88
2023-04-19T08:56:10.495Z,11.94
2023-04-19T08:58:57.706Z,11.93
2023-04-19T09:01:35.516Z,11.86
2023-04-19T09:04:26.101Z,11.98
2023-04-19T09:06:54.360Z,11.67
2023-04-19T09:11:58.266Z,11.76
2023-04-19T09:14:27.516Z,11.74
2023-04-19T09:16:54.996Z,11.63
2023-04-19T09:19:25.243Z,11.53
2023-04-19T09:21:54.877Z,11.69
2023-04-19T09:25:30.784Z,11.65
2023-04-19T09:27:41.190Z,11.61
2023-04-19T09:30:14.830Z,11.61
2023-04-19T09:32:49.383Z,11.52
2023-04-19T09:35:16.528Z,11.52
2023-04-19T09:40:31.227Z,11.62
2023-04-19T09:45:30.901Z,11.69
2023-04-19T09:48:02.884Z,11.75
2023-04-19T09:50:31.540Z,11.58
2023-04-19T09:53:00.335Z,11.69
2023-04-19T09:55:29.223Z,11.67
2023-04-19T09:57:56.913Z,11.59
2023-04-19T10:00:23.846Z,11.45
2023-04-19T10:02:58.476Z,11.47
2023-04-19T10:05:26.437Z,11.42
2023-04-19T10:07:56.713Z,11.30
2023-04-19T10:10:40.566Z,11.27
2023-04-19T10:13:19.962Z,11.20
2023-04-19T10:15:52.416Z,11.15
2023-04-19T10:18:23.105Z,11.19
2023-04-19T10:21:01.684Z,11.14
2023-04-19T10:23:29.459Z,11.16
2023-04-19T10:26:00.501Z,11.10
2023-04-19T10:28:31.182Z,11.04
2023-04-19T10:31:03.306Z,11.03
2023-04-19T10:33:34.377Z,11.00
2023-04-19T10:36:02.299Z,10.92
2023-04-19T10:38:47.962Z,10.92
2023-04-19T10:41:19.611Z,10.94
2023-04-19T10:43:48.786Z,10.96
2023-04-19T10:46:36.967Z,10.94
2023-04-19T10:49:05.866Z,10.93
2023-04-19T10:51:36.720Z,10.96
2023-04-19T10:54:04.192Z,10.94
2023-04-19T10:56:33.881Z,10.91
2023-04-19T10:59:12.639Z,10.85
2023-04-19T11:01:47.780Z,10.89
2023-04-19T11:04:32.984Z,10.91
2023-04-19T11:07:08.978Z,10.83
2023-04-19T11:09:42.341Z,10.88
2023-04-19T11:12:17.058Z,10.91
2023-04-19T11:14:46.369Z,10.87
2023-04-19T11:17:26.122Z,10.86
2023-04-19T11:19:53.932Z,10.88
2023-04-19T11:22:45.587Z,10.88
2023-04-19T11:25:20.734Z,10.81
2023-04-19T11:27:52.938Z,10.89
2023-04-19T11:30:22.409Z,10.92
2023-04-19T11:32:52.928Z,10.93
2023-04-19T11:35:21.562Z,10.99
2023-04-19T11:37:48.448Z,11.07
2023-04-19T11:40:17.184Z,10.97
2023-04-19T11:42:44.477Z,10.99
2023-04-19T11:45:26.062Z,11.00
2023-04-19T11:47:56.744Z,10.99
2023-04-19T11:50:41.051Z,10.98
2023-04-19T11:53:15.595Z,11.06
2023-04-19T11:55:46.862Z,11.07
2023-04-19T11:58:29.201Z,11.10
2023-04-19T12:01:00.871Z,11.08
2023-04-19T12:03:28.322Z,11.08
2023-04-19T12:06:00.434Z,11.06
2023-04-19T12:08:35.383Z,11.00
2023-04-19T12:11:08.952Z,11.08
2023-04-19T12:13:36.849Z,11.12
2023-04-19T12:16:04.027Z,11.15
2023-04-19T12:18:50.962Z,11.20
2023-04-19T12:21:28.529Z,11.24
2023-04-19T12:23:57.146Z,11.26
2023-04-19T12:26:24.679Z,11.33
2023-04-19T12:28:51.467Z,11.42
2023-04-19T12:31:18.207Z,11.40
2023-04-19T12:33:44.945Z,11.49
2023-04-19T12:36:11.676Z,11.54
2023-04-19T12:38:38.378Z,11.60
2023-04-19T12:41:05.113Z,11.60
2023-04-19T12:43:32.541Z,11.58
2023-04-19T12:46:00.207Z,11.70
2023-04-19T12:48:27.559Z,11.74
2023-04-19T12:50:55.021Z,11.87
2023-04-19T12:53:24.281Z,11.89
2023-04-19T12:55:51.404Z,11.84
2023-04-19T12:58:18.760Z,11.85
2023-04-19T13:00:45.560Z,11.86
2023-04-19T13:03:15.151Z,11.75
2023-04-19T13:05:42.006Z,11.76
2023-04-19T13:08:08.731Z,11.79
2023-04-19T13:10:35.619Z,11.78
2023-04-19T13:13:02.365Z,11.75
2023-04-19T13:15:29.641Z,11.82
2023-04-19T13:17:57.123Z,11.93
2023-04-19T13:20:23.900Z,11.93
2023-04-19T13:22:50.594Z,12.10
2023-04-19T13:25:17.343Z,12.12
2023-04-19T13:27:44.068Z,12.12
2023-04-19T13:30:11.237Z,12.18
2023-04-19T13:32:38.038Z,12.19
2023-04-19T13:35:05.682Z,12.15
2023-04-19T13:37:32.433Z,12.01
2023-04-19T13:40:10.780Z,11.80
2023-04-19T13:42:44.586Z,11.62
2023-04-19T13:45:11.783Z,11.56
2023-04-19T13:47:38.632Z,11.54
2023-04-19T13:50:05.844Z,11.46
2023-04-19T13:52:32.585Z,11.58
2023-04-19T13:54:59.305Z,11.72
2023-04-19T13:57:26.071Z,11.71
2023-04-19T13:59:52.924Z,11.78
2023-04-19T14:02:19.954Z,11.86
2023-04-19T14:04:46.771Z,11.83
2023-04-19T14:07:13.505Z,11.93
2023-04-19T14:09:40.258Z,11.95
2023-04-19T14:12:08.847Z,12.00
2023-04-19T14:14:35.531Z,12.12
2023-04-19T14:17:02.426Z,12.26
2023-04-19T14:19:29.127Z,12.30
2023-04-19T14:21:55.900Z,12.40
2023-04-19T14:24:22.601Z,12.38
2023-04-19T14:26:57.028Z,12.40
2023-04-19T14:29:34.204Z,12.50
2023-04-19T14:32:07.507Z,12.45
2023-04-19T14:34:43.698Z,12.45
2023-04-19T14:37:10.561Z,12.36
2023-04-19T14:39:37.360Z,12.27
2023-04-19T14:42:04.171Z,12.35
2023-04-19T14:44:31.849Z,12.41
2023-04-19T14:46:58.590Z,12.38
2023-04-19T14:49:25.367Z,12.43
2023-04-19T14:51:52.652Z,12.52
2023-04-19T14:54:19.416Z,12.54
2023-04-19T14:56:46.940Z,12.51
2023-04-19T14:59:14.154Z,12.58
2023-04-19T15:01:41.054Z,12.55
2023-04-19T15:04:09.254Z,12.49
2023-04-19T15:06:36.609Z,12.55
2023-04-19T15:09:03.494Z,12.61
2023-04-19T15:11:30.590Z,12.69
2023-04-19T15:13:57.328Z,12.64
2023-04-19T15:16:24.400Z,12.71
2023-04-19T15:18:52.002Z,12.69
2023-04-19T15:21:22.227Z,12.72
2023-04-19T15:23:50.763Z,12.74
2023-04-19T15:26:17.518Z,12.72
2023-04-19T15:28:44.384Z,12.72
2023-04-19T15:31:11.195Z,12.73
2023-04-19T15:33:38.553Z,12.78
2023-04-19T15:36:05.702Z,12.74
2023-04-19T15:38:32.938Z,12.72
2023-04-19T15:41:03.328Z,12.74
2023-04-19T15:43:30.392Z,12.64
2023-04-19T15:45:57.386Z,12.58
2023-04-19T15:48:24.307Z,12.47
2023-04-19T15:50:51.408Z,12.41
2023-04-19T15:53:18.213Z,12.27
2023-04-19T15:55:47.359Z,12.24
2023-04-19T15:58:14.101Z,12.16
2023-04-19T16:00:41.064Z,12.06
2023-04-19T16:03:11.623Z,12.12
2023-04-19T16:05:38.746Z,12.20
2023-04-19T16:08:07.811Z,12.17
2023-04-19T16:10:34.913Z,12.23
2023-04-19T16:13:03.176Z,12.22
2023-04-19T16:15:30.423Z,12.20
2023-04-19T16:17:57.273Z,12.06
2023-04-19T16:20:24.127Z,12.08
2023-04-19T16:22:50.965Z,12.07
2023-04-19T16:25:18.129Z,12.04
2023-04-19T16:27:46.420Z,11.90
2023-04-19T16:30:14.668Z,11.94
2023-04-19T16:32:41.918Z,11.85
2023-04-19T16:35:09.803Z,11.78
2023-04-19T16:37:36.821Z,11.65
2023-04-19T16:40:08.495Z,11.75
2023-04-19T16:42:36.427Z,11.67
2023-04-19T16:45:04.308Z,11.70
2023-04-19T16:47:31.279Z,11.69
2023-04-19T16:49:58.750Z,11.62
2023-04-19T16:52:27.190Z,11.68
2023-04-19T16:54:54.146Z,11.63
2023-04-19T16:57:21.020Z,11.61
2023-04-19T16:59:48.072Z,11.50
2023-04-19T17:02:15.307Z,11.43
2023-04-19T17:04:42.532Z,11.43
2023-04-19T17:07:09.699Z,11.47
2023-04-19T17:09:36.432Z,11.41
2023-04-19T17:12:03.408Z,11.37
2023-04-19T17:14:30.599Z,11.35
2023-04-19T17:16:57.701Z,11.26
2023-04-19T17:19:24.449Z,11.24
2023-04-19T17:21:51.248Z,11.19
2023-04-19T17:24:18.303Z,11.18
2023-04-19T17:26:45.144Z,11.18
2023-04-19T17:29:12.157Z,11.14
2023-04-19T17:31:38.936Z,11.06
2023-04-19T17:34:05.731Z,11.05
2023-04-19T17:36:32.485Z,10.99
2023-04-19T17:38:59.198Z,10.99
2023-04-19T17:41:25.928Z,10.91
2023-04-19T17:43:52.802Z,10.86
2023-04-19T17:46:20.967Z,10.91
2023-04-19T17:48:47.776Z,10.90
2023-04-19T17:51:14.665Z,10.84
2023-04-19T17:53:41.373Z,10.80
2023-04-19T17:56:08.187Z,10.73
2023-04-19T17:58:36.532Z,10.69
2023-04-19T18:01:03.932Z,10.65
2023-04-19T18:03:31.073Z,10.62
2023-04-19T18:05:58.147Z,10.56
2023-04-19T18:08:24.809Z,10.57
2023-04-19T18:10:51.508Z,10.51
2023-04-19T18:13:18.384Z,10.39
2023-04-19T18:15:45.154Z,10.34
2023-04-19T18:18:11.891Z,10.26
2023-04-19T18:20:38.645Z,10.22
2023-04-19T18:23:05.336Z,10.11
2023-04-19T18:25:35.233Z,10.07
2023-04-19T18:28:01.916Z,10.00
2023-04-19T18:30:28.712Z,9.89
2023-04-19T18:32:55.858Z,9.86
2023-04-19T18:35:22.580Z,9.79
2023-04-19T18:37:49.256Z,9.52
2023-04-19T18:40:16.184Z,9.71
2023-04-19T18:42:42.944Z,9.72
2023-04-19T18:45:10.238Z,9.63
2023-04-19T18:47:36.956Z,9.71
2023-04-19T18:50:06.266Z,9.72
2023-04-19T18:52:39.003Z,9.74
2023-04-19T18:55:07.003Z,9.76
2023-04-19T18:57:34.824Z,9.81
2023-04-19T19:00:04.870Z,9.77
2023-04-19T19:02:34.100Z,9.74
2023-04-19T19:05:02.215Z,9.73
2023-04-19T19:10:03.662Z,9.71
2023-04-19T19:12:36.540Z,9.67
2023-04-19T19:15:03.624Z,9.71
2023-04-19T19:17:30.457Z,9.74
2023-04-19T19:19:57.168Z,9.78
2023-04-19T19:22:28.320Z,9.79
2023-04-19T19:24:56.364Z,9.81
2023-04-19T19:27:23.146Z,9.84
2023-04-19T19:29:49.999Z,9.86
2023-04-19T19:32:16.830Z,9.87
2023-04-19T19:34:54.812Z,9.93
2023-04-19T19:37:26.581Z,9.98
2023-04-19T19:39:55.938Z,10.05
2023-04-19T19:42:24.097Z,10.12
2023-04-19T19:44:55.440Z,10.14
2023-04-19T19:47:24.042Z,10.18
2023-04-19T19:50:34.841Z,10.17
2023-04-19T19:52:37.922Z,10.06
2023-04-19T19:55:04.954Z,10.09
2023-04-19T19:58:16.361Z,10.17
2023-04-19T20:00:39.654Z,10.15
2023-04-19T20:03:06.458Z,10.10
2023-04-19T20:05:34.117Z,10.09
2023-04-19T20:08:10.401Z,10.20
2023-04-19T20:10:42.502Z,10.17
2023-04-19T20:13:09.496Z,10.20
2023-04-19T20:15:37.781Z,10.11
2023-04-19T20:18:05.325Z,10.19
2023-04-19T20:20:32.329Z,10.19
2023-04-19T20:22:59.058Z,10.13
2023-04-19T20:25:25.885Z,10.12
2023-04-19T20:27:52.653Z,10.14
2023-04-19T20:30:19.743Z,10.11
2023-04-19T20:32:48.496Z,10.11
2023-04-19T20:35:15.900Z,10.11
2023-04-19T20:37:42.629Z,10.07
2023-04-19T20:40:13.841Z,10.00
2023-04-19T20:42:41.453Z,9.94
2023-04-19T20:45:11.757Z,9.87
2023-04-19T20:47:39.014Z,9.87
2023-04-19T20:50:09.257Z,9.80
2023-04-19T20:52:36.079Z,9.79
2023-04-19T20:55:02.804Z,9.74
2023-04-19T20:57:29.765Z,9.71
2023-04-19T20:59:56.504Z,9.66
2023-04-19T21:02:23.369Z,9.63
2023-04-19T21:04:50.316Z,9.55
2023-04-19T21:07:17.032Z,9.57
2023-04-19T21:09:43.851Z,9.57
2023-04-19T21:12:10.871Z,9.53
2023-04-19T21:14:37.606Z,9.58
2023-04-19T21:17:04.522Z,9.59
2023-04-19T21:19:31.227Z,9.50
2023-04-19T21:21:58.825Z,9.50
2023-04-19T21:24:25.684Z,9.39
2023-04-19T21:26:52.877Z,9.28
2023-04-19T21:29:20.333Z,9.20
2023-04-19T21:31:47.616Z,9.11
2023-04-19T21:34:14.416Z,9.05
2023-04-19T21:36:41.108Z,8.96
2023-04-19T21:39:08.463Z,8.86
2023-04-19T21:41:36.011Z,8.72
2023-04-19T21:44:02.827Z,8.64
2023-04-19T21:46:29.694Z,8.53
2023-04-19T21:48:56.517Z,8.44
2023-04-19T21:51:23.267Z,8.44
2023-04-19T21:53:50.482Z,8.42
2023-04-19T21:56:17.206Z,8.43
2023-04-19T21:58:43.944Z,8.39
2023-04-19T22:01:11.254Z,8.31
2023-04-19T22:03:39.298Z,8.35
2023-04-19T22:06:06.621Z,8.35
2023-04-19T22:08:34.012Z,8.30
2023-04-19T22:11:01.576Z,8.30
2023-04-19T22:13:28.518Z,8.20
2023-04-19T22:15:57.116Z,8.18
2023-04-19T22:18:24.176Z,8.12
2023-04-19T22:20:52.172Z,8.07
2023-04-19T22:23:19.150Z,8.01
2023-04-19T22:25:46.035Z,8.05
2023-04-19T22:28:13.265Z,8.04
2023-04-19T22:30:40.006Z,7.97
2023-04-19T22:33:07.016Z,7.93
2023-04-19T22:35:33.854Z,7.93
2023-04-19T22:38:00.680Z,7.81
2023-04-19T22:40:27.391Z,7.85
2023-04-19T22:42:54.236Z,7.79
2023-04-19T22:45:20.911Z,7.81
2023-04-19T22:47:47.709Z,7.87
2023-04-19T22:50:14.589Z,7.89
2023-04-19T22:52:41.584Z,7.92
2023-04-19T22:55:08.784Z,7.91
2023-04-19T22:57:35.584Z,8.03
2023-04-19T23:00:03.158Z,8.06
2023-04-19T23:02:30.083Z,8.08
2023-04-19T23:04:58.848Z,8.05
2023-04-19T23:07:26.273Z,7.98
2023-04-19T23:09:54.911Z,7.93
2023-04-19T23:12:22.984Z,7.86
2023-04-19T23:14:50.607Z,7.82
2023-04-19T23:17:18.195Z,7.77
2023-04-19T23:19:45.287Z,7.69
2023-04-19T23:22:12.016Z,7.75
2023-04-19T23:24:38.851Z,7.64
2023-04-19T23:27:05.814Z,7.76
2023-04-19T23:29:32.568Z,7.81
2023-04-19T23:32:01.441Z,7.77
2023-04-19T23:34:28.470Z,7.89
2023-04-19T23:36:56.746Z,7.97
2023-04-19T23:39:23.505Z,8.03
2023-04-19T23:41:50.274Z,8.02
2023-04-19T23:44:17.037Z,7.99
2023-04-19T23:46:43.917Z,7.95
2023-04-19T23:49:10.780Z,7.81
2023-04-19T23:51:37.517Z,7.78
2023-04-19T23:54:04.347Z,7.59
2023-04-19T23:56:31.259Z,7.54
2023-04-19T23:58:58.108Z,7.49
